Latest Weather Observations for Toowoomba

IDQ60801

Issued at 6:02 am EST Saturday 25 March 2017 (issued every 30 minutes, with the page automatically refreshed every 10 minutes)

About weather observations | Map of weather stations | Latest weather observations for QLD | Other Formats
Station Details ID: 041529 Name: TOOWOOMBA AIRPORT Lat: -27.54 Lon: 151.91 Height: 640.9 m
Data from the previous 72 hours. | See also: Recent months at Toowoomba
Date/Time
EST
Temp
°C
App
Temp
°C
Dew
Point
°C
Rel
Hum
%
Delta-T
°C
Wind Press
QNH
hPa
Press
MSL
hPa
Rain since
9am
mm
Dir  Spd
km/h
Gust
km/h
Spd
kts
Gust
kts
25/05:30am 17.5 13.8 16.9 96 0.4 E 32 39 17 21 1018.2 1015.0 1.6
25/05:00am 17.4 13.7 16.9 97 0.3 E 32 39 17 21 1018.0 1014.8 1.6
25/04:30am 17.5 13.6 17.0 97 0.3 E 33 43 18 23 1017.7 1014.5 1.6
25/04:00am 17.4 13.7 16.9 97 0.3 E 32 41 17 22 1017.7 1014.5 1.6
25/03:30am 17.4 13.8 17.1 98 0.2 E 32 39 17 21 1017.8 1014.6 1.6
25/03:00am 17.4 14.1 17.1 98 0.2 E 30 35 16 19 1017.8 1014.6 1.6
25/02:30am 17.5 13.9 17.2 98 0.2 E 32 39 17 21 1017.9 1014.7 1.6
25/02:00am 17.6 14.4 17.3 98 0.2 E 30 35 16 19 1018.3 1015.1 1.6
25/01:30am 17.8 14.7 17.6 99 0.1 E 30 37 16 20 1018.7 1015.4 1.6
25/01:00am 18.1 14.7 17.8 98 0.2 E 32 39 17 21 1019.0 1015.8 1.6
25/12:30am 18.3 15.8 18.0 98 0.2 E 28 35 15 19 1019.4 1016.2 1.6
25/12:01am 18.4 15.5 17.9 97 0.3 E 30 39 16 21 1019.6 1016.4 1.6
25/12:00am 18.4 15.5 17.9 97 0.3 E 30 39 16 21 1019.6 1016.4 1.6
 
Date/Time
EST
Temp
°C
App
Temp
°C
Dew
Point
°C
Rel
Hum
%
Delta-T
°C
Wind Press
QNH
hPa
Press
MSL
hPa
Rain since
9am
mm
Dir  Spd
km/h
Gust
km/h
Spd
kts
Gust
kts
24/11:30pm 18.6 15.8 18.1 97 0.3 E 30 37 16 20 1019.9 1016.7 1.6
24/11:00pm 18.7 16.7 18.4 98 0.2 E 26 35 14 19 1020.0 1016.8 1.6
24/10:30pm 18.8 16.9 18.6 99 0.1 E 26 33 14 18 1020.3 1017.1 1.6
24/10:29pm 18.9 17.1 18.7 99 0.1 E 26 33 14 18 1020.3 1017.1 1.6
24/10:21pm 18.9 17.1 18.7 99 0.1 E 26 33 14 18 1020.3 1017.1 1.6
24/10:00pm 18.9 15.9 18.7 99 0.1 ESE 32 39 17 21 1019.8 1016.6 0.6
24/09:35pm 19.0 15.9 18.8 99 0.1 E 33 44 18 24 1019.6 1016.4 0.2
24/09:30pm 19.0 15.8 18.7 98 0.2 E 33 44 18 24 1019.5 1016.3 0.0
24/09:26pm 19.0 15.8 18.7 98 0.2 E 33 44 18 24 1019.5 1016.3 0.0
24/09:19pm 19.0 15.5 18.7 98 0.2 E 35 46 19 25 1019.6 1016.4 0.0
24/09:00pm 19.2 16.2 19.0 99 0.1 ESE 33 44 18 24 1019.7 1016.5 0.0
24/08:55pm 19.2 16.4 19.0 99 0.1 E 32 44 17 24 1019.8 1016.6 0.0
24/08:30pm 19.7 16.5 18.7 94 0.6 E 33 43 18 23 1019.5 1016.3 0.0
24/08:19pm 20.5 17.4 18.8 90 1.1 E 33 52 18 28 1019.5 1016.3 0.0
24/08:00pm 20.9 20.0 19.9 94 0.7 E 24 33 13 18 1019.4 1016.2 0.0
24/07:30pm 21.1 19.8 19.9 93 0.8 E 26 33 14 18 1018.7 1015.4 0.0
24/07:00pm 21.3 20.2 20.3 94 0.7 E 26 33 14 18 1018.3 1015.1 0.0
24/06:30pm 22.0 21.5 20.8 93 0.8 E 24 30 13 16 1018.1 1014.9 0.0
24/06:08pm 22.1 21.7 20.9 93 0.8 E 24 30 13 16 1017.8 1014.6 0.0
24/06:00pm 22.2 21.5 21.0 93 0.8 E 26 32 14 17 1017.8 1014.6 0.0
24/05:30pm 23.7 22.9 20.0 80 2.4 E 24 33 13 18 1017.4 1014.1 0.0
24/05:00pm 25.6 25.0 18.8 66 4.4 E 20 28 11 15 1017.2 1013.9 0.0
24/04:30pm 25.7 24.5 18.4 64 4.7 E 22 28 12 15 1017.1 1013.8 0.0
24/04:00pm 26.0 25.3 18.7 64 4.8 E 20 28 11 15 1016.9 1013.6 0.0
24/03:30pm 26.2 25.3 18.1 61 5.3 E 20 28 11 15 1016.7 1013.5 0.0
24/03:00pm 26.3 25.7 18.4 61 5.1 E 19 26 10 14 1016.7 1013.5 0.0
24/02:30pm 26.2 25.9 19.1 65 4.7 E 19 24 10 13 1017.0 1013.7 0.0
24/02:00pm 26.4 26.8 19.8 67 4.4 ENE 17 22 9 12 1017.3 1014.0 0.0
24/01:30pm 26.4 27.0 18.5 62 5.2 E 13 20 7 11 1017.6 1014.4 0.0
24/01:00pm 26.1 26.4 18.8 64 4.8 E 15 20 8 11 1018.0 1014.8 0.0
24/12:30pm 25.6 26.1 19.3 68 4.2 E 15 22 8 12 1018.7 1015.4 0.0
24/12:00pm 24.5 25.0 18.4 69 3.9 ESE 13 17 7 9 1019.2 1016.0 0.0
24/11:30am 24.9 25.6 18.8 69 4.0 E 13 20 7 11 1019.6 1016.4 0.0
24/11:00am 24.6 25.5 19.2 72 3.5 ESE 13 19 7 10 1019.9 1016.7 0.0
24/10:30am 23.9 24.6 18.8 73 3.3 ENE 13 19 7 10 1020.0 1016.8 0.0
24/10:00am 23.4 24.3 19.3 78 2.7 E 13 17 7 9 1020.4 1017.2 0.0
24/09:30am 22.9 23.9 20.2 85 1.8 E 15 20 8 11 1020.5 1017.3 0.0
24/09:08am 22.5 23.2 20.4 88 1.4 E 17 22 9 12 1020.3 1017.1 0.0
24/09:00am 22.0 22.5 20.1 89 1.3 E 17 19 9 10 1020.3 1017.1 67.0
24/08:30am 20.8 21.4 20.3 97 0.3 E 17 20 9 11 1019.8 1016.6 67.0
24/08:21am 20.5 21.5 20.2 98 0.2 ENE 15 20 8 11 1019.8 1016.6 67.0
24/08:00am 20.2 20.3 20.0 99 0.1 E 19 22 10 12 1019.7 1016.5 67.0
24/07:48am 20.0 20.4 19.8 99 0.1 E 17 20 9 11 1019.7 1016.5 67.0
24/07:30am 20.2 21.1 20.0 99 0.1 E 15 20 8 11 1019.5 1016.3 67.0
24/07:24am 20.1 20.9 19.9 99 0.1 E 15 20 8 11 1019.4 1016.2 67.0
24/07:00am 19.7 20.7 19.5 99 0.1 E 13 17 7 9 1019.3 1016.1 67.0
24/06:30am 19.5 20.8 19.3 99 0.1 E 11 15 6 8 1019.0 1015.8 67.0
24/06:00am 19.4 20.7 19.2 99 0.1 E 11 13 6 7 1018.7 1015.4 67.0
24/05:30am 19.3 20.5 19.1 99 0.1 E 11 13 6 7 1018.3 1015.1 67.0
24/05:00am 19.3 20.1 19.1 99 0.1 ENE 13 15 7 8 1018.1 1014.9 67.0
24/04:30am 19.3 20.5 19.1 99 0.1 ENE 11 13 6 7 1018.0 1014.8 67.0
24/04:00am 19.3 19.7 19.1 99 0.1 ENE 15 17 8 9 1017.9 1014.7 67.0
24/03:30am 19.2 20.4 19.0 99 0.1 E 11 17 6 9 1017.9 1014.7 67.0
24/03:00am 19.1 19.8 18.9 99 0.1 E 13 15 7 8 1017.9 1014.7 67.0
24/02:30am 19.1 20.2 18.9 99 0.1 ENE 11 13 6 7 1018.2 1015.0 67.0
24/02:00am 19.3 20.1 19.1 99 0.1 ENE 13 17 7 9 1018.3 1015.1 67.0
24/01:30am 19.5 20.8 19.3 99 0.1 ENE 11 13 6 7 1018.9 1015.7 67.0
24/01:00am 19.8 21.6 19.6 99 0.1 E 9 11 5 6 1019.2 1016.0 66.6
24/12:30am 19.8 21.6 19.6 99 0.1 E 9 13 5 7 1019.3 1016.1 66.6
24/12:00am 19.9 21.4 19.7 99 0.1 NE 11 15 6 8 1019.3 1016.1 66.6
 
Date/Time
EST
Temp
°C
App
Temp
°C
Dew
Point
°C
Rel
Hum
%
Delta-T
°C
Wind Press
QNH
hPa
Press
MSL
hPa
Rain since
9am
mm
Dir  Spd
km/h
Gust
km/h
Spd
kts
Gust
kts
23/11:30pm 19.9 21.8 19.7 99 0.1 E 9 11 5 6 1019.6 1016.4 66.6
23/11:29pm 19.9 21.8 19.7 99 0.1 E 9 11 5 6 1019.6 1016.4 66.6
23/11:06pm 19.9 21.0 19.7 99 0.1 NE 13 19 7 10 1019.9 1016.7 66.4
23/11:00pm 19.9 21.0 19.7 99 0.1 ENE 13 20 7 11 1020.0 1016.8 65.6
23/10:30pm 20.0 19.4 19.8 99 0.1 ENE 22 33 12 18 1020.3 1017.1 58.6
23/10:00pm 20.6 22.0 20.4 99 0.1 E 13 17 7 9 1020.4 1017.2 37.0
23/09:30pm 20.7 21.8 20.4 98 0.2 ESE 15 20 8 11 1020.5 1017.3 20.6
23/09:25pm 20.7 21.4 20.4 98 0.2 E 17 20 9 11 1020.5 1017.3 15.0
23/09:11pm 21.0 21.2 20.2 95 0.5 E 19 24 10 13 1020.4 1017.2 1.2
23/09:00pm 21.6 23.1 19.7 89 1.2 ENE 11 17 6 9 1020.4 1017.2 0.0
23/08:30pm 21.5 22.7 19.8 90 1.1 ENE 13 17 7 9 1020.0 1016.8 0.0
23/08:00pm 21.7 22.8 19.6 88 1.4 ENE 13 17 7 9 1019.5 1016.3 0.0
23/07:30pm 22.2 23.6 19.6 85 1.7 ENE 11 13 6 7 1019.4 1016.2 0.0
23/07:00pm 22.4 23.9 19.8 85 1.7 ENE 11 15 6 8 1019.0 1015.8 0.0
23/06:30pm 22.6 24.4 19.6 83 2.0 NNE 9 11 5 6 1018.9 1015.7 0.0
23/06:00pm 23.1 25.1 19.9 82 2.1 ENE 9 13 5 7 1018.6 1015.3 0.0
23/05:30pm 23.4 24.2 19.8 80 2.4 E 15 19 8 10 1018.1 1014.9 0.0
23/05:00pm 23.7 23.8 19.2 76 2.9 E 17 20 9 11 1018.2 1015.0 0.0
23/04:30pm 24.1 24.7 19.4 75 3.1 E 15 19 8 10 1018.0 1014.8 0.0
23/04:00pm 24.6 24.6 19.0 71 3.7 E 17 20 9 11 1017.8 1014.6 0.0
23/03:30pm 25.0 24.5 18.7 68 4.1 ENE 19 24 10 13 1017.7 1014.5 0.0
23/03:00pm 25.3 26.5 19.9 72 3.6 ENE 13 20 7 11 1017.7 1014.5 0.0
23/02:30pm 25.0 26.0 19.4 71 3.7 NE 13 20 7 11 1017.9 1014.7 0.0
23/02:00pm 25.0 25.1 19.1 70 3.9 E 17 24 9 13 1018.1 1014.9 0.0
23/01:30pm 25.1 25.4 18.8 68 4.1 ENE 15 20 8 11 1018.3 1015.1 0.0
23/01:00pm 24.8 25.4 19.4 72 3.5 ENE 15 20 8 11 1018.8 1015.5 0.0
23/12:30pm 24.3 24.3 18.9 72 3.5 E 17 20 9 11 1019.2 1016.0 0.0
23/12:00pm 23.7 24.1 19.8 79 2.6 ENE 17 22 9 12 1019.6 1016.4 0.0
23/11:30am 24.2 25.9 20.9 82 2.2 ENE 13 17 7 9 1020.0 1016.8 0.0
23/11:00am 22.5 24.2 19.3 82 2.1 ENE 9 17 5 9 1020.6 1017.4 0.0
23/10:38am 22.5 23.5 19.5 83 2.0 ENE 13 17 7 9 1020.6 1017.4 0.0
23/10:30am 22.3 22.7 19.1 82 2.1 ENE 15 19 8 10 1020.5 1017.3 0.0
23/10:01am 22.5 23.3 19.9 85 1.7 ENE 15 19 8 10 1020.6 1017.4 0.0
23/10:00am 22.3 23.0 19.7 85 1.7 ENE 15 20 8 11 1020.7 1017.5 0.0
23/09:52am 22.1 22.3 19.3 84 1.8 E 17 22 9 12 1020.7 1017.5 0.0
23/09:30am 21.6 22.0 19.9 90 1.1 E 17 22 9 12 1020.7 1017.5 0.0
23/09:06am 21.1 21.4 19.7 92 0.9 ENE 17 20 9 11 1020.5 1017.3 0.0
23/09:00am 21.0 21.3 19.7 92 0.8 E 17 22 9 12 1020.5 1017.3 2.4
23/08:32am 20.7 21.0 19.7 94 0.7 E 17 22 9 12 1020.1 1016.9 2.4
23/08:30am 20.6 20.9 19.6 94 0.7 ENE 17 22 9 12 1020.1 1016.9 2.4
23/08:00am 20.2 20.7 20.0 99 0.1 E 17 22 9 12 1019.8 1016.6 2.4
23/07:30am 19.9 19.7 19.7 99 0.1 E 20 24 11 13 1019.4 1016.2 2.4
23/07:26am 19.9 19.7 19.7 99 0.1 E 20 24 11 13 1019.3 1016.1 2.4
23/07:00am 19.6 18.9 19.4 99 0.1 E 22 26 12 14 1019.0 1015.8 2.4
23/06:42am 19.6 19.2 19.4 99 0.1 E 20 24 11 13 1018.8 1015.5 2.4
23/06:33am 19.6 19.2 19.4 99 0.1 ENE 20 24 11 13 1018.8 1015.5 2.4
23/06:30am 19.6 19.2 19.4 99 0.1 ENE 20 24 11 13 1018.8 1015.5 2.4
23/06:14am 19.6 19.4 19.4 99 0.1 E 19 24 10 13 1018.8 1015.5 2.4
23/06:00am 19.7 20.0 19.5 99 0.1 E 17 24 9 13 1018.6 1015.3 2.4
23/05:30am 19.6 20.9 19.4 99 0.1 ENE 11 17 6 9 1018.6 1015.3 2.4
23/05:00am 19.6 20.6 19.4 99 0.1 ENE 13 17 7 9 1018.2 1015.0 2.4
23/04:30am 19.7 20.7 19.5 99 0.1 E 13 17 7 9 1018.1 1014.9 2.4
23/04:29am 19.7 20.7 19.5 99 0.1 ENE 13 17 7 9 1018.1 1014.9 2.4
23/04:04am 19.7 21.1 19.5 99 0.1 E 11 15 6 8 1018.1 1014.9 2.4
23/04:02am 19.7 20.7 19.5 99 0.1 E 13 17 7 9 1018.1 1014.9 2.4
23/04:00am 19.7 20.7 19.5 99 0.1 E 13 17 7 9 1018.1 1014.9 2.4
23/03:43am 19.7 21.1 19.5 99 0.1 ENE 11 15 6 8 1017.9 1014.7 2.4
23/03:30am 19.7 21.1 19.5 99 0.1 ENE 11 15 6 8 1017.9 1014.7 2.4
23/03:23am 19.7 21.1 19.5 99 0.1 E 11 17 6 9 1017.9 1014.7 2.4
23/03:10am 19.7 21.1 19.5 99 0.1 E 11 17 6 9 1017.9 1014.7 2.4
23/03:00am 19.6 20.9 19.4 99 0.1 ENE 11 17 6 9 1017.9 1014.7 2.4
23/02:30am 19.7 20.7 19.5 99 0.1 ENE 13 17 7 9 1018.1 1014.9 2.4
23/02:00am 19.7 21.5 19.5 99 0.1 ENE 9 15 5 8 1018.3 1015.1 2.4
23/01:38am 19.7 21.1 19.5 99 0.1 ENE 11 13 6 7 1018.4 1015.2 2.4
23/01:30am 19.7 21.1 19.5 99 0.1 ENE 11 13 6 7 1018.6 1015.3 2.4
23/01:00am 19.8 21.6 19.6 99 0.1 ENE 9 13 5 7 1018.9 1015.7 2.4
23/12:30am 19.9 21.8 19.7 99 0.1 ENE 9 15 5 8 1019.1 1015.9 2.4
23/12:00am 19.9 21.8 19.7 99 0.1 ENE 9 13 5 7 1019.5 1016.3 2.4
 
Date/Time
EST
Temp
°C
App
Temp
°C
Dew
Point
°C
Rel
Hum
%
Delta-T
°C
Wind Press
QNH
hPa
Press
MSL
hPa
Rain since
9am
mm
Dir  Spd
km/h
Gust
km/h
Spd
kts
Gust
kts
22/11:37pm 19.9 21.4 19.7 99 0.1 NE 11 15 6 8 1019.5 1016.3 2.4
22/11:30pm 20.0 21.2 19.8 99 0.1 ENE 13 17 7 9 1019.5 1016.3 2.4
22/11:00pm 20.1 21.3 19.9 99 0.1 E 13 19 7 10 1019.5 1016.3 2.4
22/10:30pm 20.2 21.4 20.0 99 0.1 E 13 17 7 9 1019.5 1016.3 2.4
22/10:08pm 20.1 20.9 19.9 99 0.1 ENE 15 22 8 12 1019.6 1016.4 2.4
22/10:03pm 20.1 20.5 19.9 99 0.1 ENE 17 22 9 12 1019.6 1016.4 2.4
22/10:00pm 20.1 20.5 19.9 99 0.1 ENE 17 22 9 12 1019.6 1016.4 2.4
22/09:41pm 20.2 20.3 20.0 99 0.1 E 19 28 10 15 1019.7 1016.5 2.4
22/09:30pm 20.1 20.2 19.9 99 0.1 E 19 24 10 13 1019.7 1016.5 2.4
22/09:00pm 20.2 20.3 20.0 99 0.1 E 19 22 10 12 1019.4 1016.2 2.4
22/08:33pm 20.3 20.5 20.1 99 0.1 E 19 24 10 13 1019.5 1016.3 2.4
22/08:30pm 20.4 20.6 20.2 99 0.1 E 19 24 10 13 1019.5 1016.3 2.4
22/08:00pm 20.6 21.3 20.4 99 0.1 E 17 20 9 11 1019.1 1015.9 2.4
22/07:32pm 20.5 21.1 20.3 99 0.1 E 17 20 9 11 1018.7 1015.4 2.4
22/07:30pm 20.5 21.1 20.3 99 0.1 E 17 20 9 11 1018.7 1015.4 2.4
22/07:15pm 20.5 21.1 20.3 99 0.1 ENE 17 20 9 11 1018.6 1015.3 2.2
22/07:00pm 20.5 21.1 20.3 99 0.1 E 17 20 9 11 1018.6 1015.3 2.2
22/06:30pm 20.5 21.1 20.3 99 0.1 ENE 17 22 9 12 1018.3 1015.1 2.2
22/06:28pm 20.5 21.1 20.3 99 0.1 ENE 17 22 9 12 1018.3 1015.1 2.2
22/06:06pm 20.7 22.2 20.5 99 0.1 E 13 17 7 9 1018.2 1015.0 2.2
22/06:00pm 20.6 22.0 20.4 99 0.1 E 13 15 7 8 1018.0 1014.8 2.2
22/05:30pm 20.8 22.0 20.6 99 0.1 ESE 15 19 8 10 1018.0 1014.8 2.2
22/05:00pm 21.0 22.0 20.3 96 0.5 E 15 22 8 12 1018.1 1014.9 2.0
22/04:39pm 21.5 23.6 21.0 97 0.3 ESE 11 17 6 9 1017.8 1014.6 2.0
22/04:33pm 21.4 23.0 20.7 96 0.5 ESE 13 17 7 9 1017.7 1014.5 2.0
22/04:30pm 21.3 22.8 20.5 95 0.5 E 13 17 7 9 1017.7 1014.5 2.0
22/04:12pm 21.3 21.4 19.2 88 1.4 E 17 24 9 13 1017.8 1014.6 1.0
22/04:00pm 22.7 23.9 19.9 84 1.8 ENE 13 19 7 10 1017.6 1014.4 0.0
22/03:48pm 22.9 24.1 19.9 83 2.0 ENE 13 17 7 9 1017.6 1014.4 0.0
22/03:36pm 23.1 24.2 19.7 81 2.2 ENE 13 20 7 11 1017.6 1014.4 0.0
22/03:30pm 23.2 24.8 20.0 82 2.1 ENE 11 15 6 8 1017.6 1014.4 0.0
22/03:00pm 23.0 24.3 19.2 79 2.5 NE 11 17 6 9 1017.7 1014.5 0.0
22/02:56pm 23.2 24.7 19.8 81 2.2 ENE 11 15 6 8 1017.7 1014.5 0.0
22/02:30pm 22.5 24.1 19.9 85 1.7 ENE 11 15 6 8 1017.8 1014.6 0.0
22/02:27pm 22.4 23.8 19.6 84 1.8 ENE 11 15 6 8 1017.8 1014.6 0.0
22/02:00pm 22.5 23.7 20.0 86 1.6 ENE 13 17 7 9 1017.9 1014.7 0.0
22/01:30pm 22.5 23.7 20.0 86 1.6 ENE 13 19 7 10 1018.2 1015.0 0.0
22/01:00pm 22.5 23.5 19.5 83 2.0 ENE 13 17 7 9 1018.6 1015.3 0.0
22/12:30pm 22.0 23.1 19.7 87 1.5 ENE 13 17 7 9 1019.0 1015.8 0.0
22/12:28pm 22.1 23.3 19.8 87 1.5 ENE 13 17 7 9 1019.0 1015.8 0.0
22/12:09pm 22.2 23.4 19.9 87 1.5 ENE 13 19 7 10 1019.3 1016.1 0.0
22/12:00pm 22.3 23.5 19.8 86 1.6 NE 13 19 7 10 1019.4 1016.2 0.0
22/11:30am 22.0 22.5 19.2 84 1.8 ENE 15 22 8 12 1019.4 1016.2 0.0
22/11:03am 21.9 22.5 19.5 86 1.6 NE 15 19 8 10 1019.7 1016.5 0.0
22/11:00am 22.1 22.9 19.8 87 1.5 NE 15 19 8 10 1019.7 1016.5 0.0
22/10:30am 21.8 23.3 20.6 93 0.8 ENE 13 19 7 10 1019.9 1016.7 0.0
22/10:00am 20.9 21.4 20.1 95 0.5 ENE 17 22 9 12 1020.0 1016.8 0.0
22/09:35am 20.7 21.1 19.9 95 0.5 ENE 17 20 9 11 1020.0 1016.8 0.0
22/09:30am 20.8 21.3 20.1 96 0.5 ENE 17 20 9 11 1020.0 1016.8 0.0
22/09:29am 20.7 21.3 20.2 97 0.3 ENE 17 22 9 12 1020.0 1016.8 0.0
22/09:00am 20.3 20.5 20.1 99 0.1 ENE 19 32 10 17 1020.1 1016.9 2.0
22/08:50am 20.2 20.7 20.0 99 0.1 NE 17 24 9 13 1020.1 1016.9 2.0
22/08:30am 19.9 19.7 19.7 99 0.1 ENE 20 28 11 15 1020.0 1016.8 2.0
22/08:22am 19.8 19.5 19.6 99 0.1 ENE 20 30 11 16 1019.9 1016.7 2.0
22/08:17am 19.8 19.7 19.6 99 0.1 ENE 19 30 10 16 1019.9 1016.7 2.0
22/08:00am 19.7 19.6 19.5 99 0.1 ENE 19 24 10 13 1019.8 1016.6 2.0
22/07:30am 19.7 19.4 19.5 99 0.1 E 20 24 11 13 1019.5 1016.3 1.8
22/07:00am 19.7 20.0 19.5 99 0.1 ENE 17 24 9 13 1019.5 1016.3 1.8
22/06:30am 19.6 19.2 19.4 99 0.1 ENE 20 30 11 16 1019.0 1015.8 1.8

Other Formats:

Comma delimited format used in spreadsheet applications
http://www.bom.gov.au/fwo/IDQ60801/IDQ60801.95551.axf

JavaScript Object Notation format (JSON) in row-major order
http://www.bom.gov.au/fwo/IDQ60801/IDQ60801.95551.json